Decoded Metar for WBKL (LABUAN in MALAYSIA) (IATA:LBU) | Meteo·Mobile Aviation Weather
aviador You're here:

WBKL Decoded Metar

LABUAN in MALAYSIA
Report Time2018-10-23 12:00:00
UTC Time2018-10-23 12:21:04
Flight Rules vfr VFR
WindVRB at 03 kt
Visibility9999 m
Phenomena:N/A
Clouds:Few 013 Hf
Few CB 015 Hf
Overcast 290 Hf
Expected CloudBase > 1,200 ft AGL from Temp-Dew spread
Ceiling29,000 ft
Temp26°C (ISA +11)
Dew Point23°C (84% RH)
QNH1011 hPa
Density Alt1,827 ft
Elevation98 ft
Report Wrong Elevation
Raw Report
WBKL 231200Z VRB03KT 9999 FEW013 FEW015CB OVC290 26/23 Q1011=

Extra information for WBKL:More info

Metar Taf Metar & Taf Last 4 Metars F.Rules Stats Wind Profile Meteogram Temp Stats Airport Information Weather charts Add Link Nearby VenuesMetar ALERT Operation Metar Decoded Social comments